Details From KHOU - William P Hobby
To MMPR - Licenciado Gustavo Diaz Ordaz Intl
Flight Number -
Tags Generated
Created
Modified
Stats Distance 764 nm / 1,416 km
Max Altitude 0 ft / 0 m
Waypoints 4
Social Downloads 4
Likes 0
Share VATSIM

Download

Looking for another format? Having issues loading an existing format? Contact us
Advertisement - Login to hide

Notes

Generated

Route

KHOU FALTO LIBAR MMPR

ID Type Via Altitude Latitude Longitude Leg Dist Tot Dist Heading (true) Name
O KHOU APT - 0 ft / 0 m 29.65261˚ -95.28387˚ - 0 nm - William P Hobby
FALTO FIX - 0 ft / 0 m 26.46275˚ -99.10322˚ 278 nm 278 nm 227° / 226° -
LIBAR FIX - 0 ft / 0 m 23.61896˚ -102.21665˚ 240 nm 519 nm 225° / 224° -
O MMPR APT - 0 ft / 0 m 20.67053˚ -105.26511˚ 245 nm 764 nm 224° / 223° -

Altitude Profile

Advertisement - Login to hide

Weather


0- 5 10 15 20 25 30 35+ Temperature / ° C

Clouds and Precipitation
Forecast for 2017-12-11 12:00 UTC. Updated 20 minutes ago

Ground ~20,000 ft ~40,000 ft Winds

KHOU

Details ICAO KHOU (HOU)
Name William P Hobby
Region United States
Timezone America/Chicago (UTC-6.0)
Stats Elevation 45 ft / 14 m (AMSL)
Location 29.645532° -95.279111°
Runways 4
Magnetic Variation 2.440° E

METAR

KHOU 110653Z 22004KT 10SM FEW250 05/03 A3034 RMK AO2 SLP279 T00500028

Decode

TAF

TAF KHOU 110520Z 1106/1206 24007KT P6SM SCT250

Decode

Departure Runways

ID Width Length Bearing (true) Bearing (mag) Surface Threshold Offset Overrun Length
04 151 ft / 46 m 7,609 ft / 2,319 m 43.80° 41.36° Concrete 0 ft / 0 m 197 ft / 60 m
12L 98 ft / 30 m 5,152 ft / 1,570 m 134.09° 131.65° Concrete 0 ft / 0 m 148 ft / 45 m
12R 151 ft / 46 m 7,608 ft / 2,319 m 134.10° 131.66° Asphalt 1,033 ft / 315 m 148 ft / 45 m
17 151 ft / 46 m 6,020 ft / 1,835 m 178.95° 176.51° Asphalt 0 ft / 0 m 197 ft / 60 m
22 151 ft / 46 m 7,609 ft / 2,319 m 223.81° 221.37° Concrete 0 ft / 0 m 197 ft / 60 m
30L 151 ft / 46 m 7,608 ft / 2,319 m 314.11° 311.67° Asphalt 0 ft / 0 m 148 ft / 45 m
30R 98 ft / 30 m 5,152 ft / 1,570 m 314.10° 311.66° Concrete 0 ft / 0 m 148 ft / 45 m
35 151 ft / 46 m 6,020 ft / 1,835 m 358.95° 356.51° Asphalt 0 ft / 0 m 197 ft / 60 m

MMPR

Details ICAO MMPR (PVR)
Name LICENCIADO GUSTAVO DIAZ ORDAZ INTL
Region Mexico
Timezone America/Mexico_City (UTC-6.0)
Stats Elevation 23 ft / 7 m (AMSL)
Location 20.680069° -105.254153°
Runways 1
Magnetic Variation 6.891° E

METAR

MMPR 110545Z 02006KT 12SM SKC 20/12 A3008 RMK SLP183 52008 922

Decode

TAF

TAF MMPR 102316Z 1100/1206 22005KT P6SM SCT150 OVC230 TX28/1121Z TN17/1112Z FM110600 24005KT 6SM HZ SCT150 OVC250 FM111800 23010KT P6SM BKN150 OVC250 FM120400 24005KT 6SM HZ BKN150 OVC250

Decode

Destination Runways

ID Width Length Bearing (true) Bearing (mag) Surface Threshold Offset Overrun Length
04 148 ft / 45 m 10,221 ft / 3,116 m 47.05° 40.16° Asphalt 0 ft / 0 m 185 ft / 56 m
22 148 ft / 45 m 10,221 ft / 3,116 m 227.06° 220.17° Asphalt 0 ft / 0 m 185 ft / 56 m

Popular Alternatives